Time;durP1;ratioP1;P1;durP2;ratioP2;P2;SDS_P1;SDS_P2;PMS_P1;PMS_P2;Temp;Humidity;BMP_temperature;BMP_pressure;BME280_temperature;BME280_humidity;BME280_pressure;Samples;Min_cycle;Max_cycle;Signal;HPM_P1;HPM_P2
2021/05/15 00:00:38;;;;;;;3.58;3.28;;;;;;;;;;5093345;28;20103;-70
2021/05/15 00:03:05;;;;;;;3.97;2.85;;;;;;;;;;5093209;28;20518;-71
2021/05/15 00:05:31;;;;;;;7.88;3.58;;;;;;;;;;5091943;28;20457;-70
2021/05/15 00:07:59;;;;;;;6.05;3.28;;;;;;;;;;5092932;28;20091;-70
2021/05/15 00:10:25;;;;;;;5.18;3.70;;;;;;;;;;5093252;28;20012;-68
2021/05/15 00:12:52;;;;;;;4.72;3.70;;;;;;;;;;5091797;28;20084;-70
2021/05/15 00:15:18;;;;;;;4.15;3.35;;;;;;;;;;5093382;28;20008;-70
2021/05/15 00:17:44;;;;;;;7.32;3.50;;;;;;;;;;5093136;28;20052;-71
2021/05/15 00:20:13;;;;;;;6.10;3.50;;;;;;;;;;5091802;28;20448;-71
2021/05/15 00:22:40;;;;;;;3.70;3.40;;;;;;;;;;5091688;28;20039;-69
2021/05/15 00:25:07;;;;;;;6.28;3.15;;;;;;;;;;5093080;28;20019;-70
2021/05/15 00:27:34;;;;;;;4.22;3.83;;;;;;;;;;5093021;28;20440;-69
2021/05/15 00:30:00;;;;;;;3.33;3.03;;;;;;;;;;5093054;28;20047;-67
2021/05/15 00:32:26;;;;;;;6.57;3.83;;;;;;;;;;5092777;28;20105;-69
2021/05/15 00:34:52;;;;;;;6.60;4.05;;;;;;;;;;5091685;28;20483;-73
2021/05/15 00:37:19;;;;;;;4.43;4.03;;;;;;;;;;5093227;28;20111;-69
2021/05/15 00:39:45;;;;;;;6.13;3.83;;;;;;;;;;5093222;28;20341;-67
2021/05/15 00:42:11;;;;;;;4.88;3.92;;;;;;;;;;5093169;28;20091;-67
2021/05/15 00:44:44;;;;;;;4.93;3.85;;;;;;;;;;5093489;28;20034;-69
2021/05/15 00:47:16;;;;;;;5.97;3.90;;;;;;;;;;5095608;28;20448;-66
2021/05/15 00:49:42;;;;;;;5.93;3.80;;;;;;;;;;5095503;28;20012;-70
2021/05/15 00:52:09;;;;;;;6.53;4.68;;;;;;;;;;5095478;28;20115;-67
2021/05/15 00:54:39;;;;;;;5.80;4.20;;;;;;;;;;5096677;28;20016;-67
2021/05/15 00:57:07;;;;;;;9.18;4.20;;;;;;;;;;5095070;28;20023;-66
2021/05/15 00:59:33;;;;;;;7.70;4.30;;;;;;;;;;5096562;28;20368;-68
2021/05/15 01:01:59;;;;;;;8.77;4.35;;;;;;;;;;5095316;28;20091;-69
2021/05/15 01:04:26;;;;;;;7.00;4.13;;;;;;;;;;5096434;28;20032;-69
2021/05/15 01:06:52;;;;;;;4.95;4.30;;;;;;;;;;5096454;28;20098;-69
2021/05/15 01:09:18;;;;;;;6.30;4.10;;;;;;;;;;5096364;28;20104;-70
2021/05/15 01:11:45;;;;;;;7.82;4.35;;;;;;;;;;5094765;28;20070;-68
2021/05/15 01:14:11;;;;;;;5.25;4.45;;;;;;;;;;5096677;28;20103;-71
2021/05/15 01:16:38;;;;;;;6.50;4.28;;;;;;;;;;5096249;28;20020;-68
2021/05/15 01:19:05;;;;;;;5.63;4.57;;;;;;;;;;5094895;28;20107;-68
2021/05/15 01:21:32;;;;;;;5.38;4.43;;;;;;;;;;5096229;28;20073;-70
2021/05/15 01:23:58;;;;;;;6.25;4.22;;;;;;;;;;5094728;28;20031;-69
2021/05/15 01:26:25;;;;;;;8.63;4.97;;;;;;;;;;5096067;28;20073;-69
2021/05/15 01:28:53;;;;;;;7.10;5.30;;;;;;;;;;5094716;28;20111;-67
2021/05/15 01:31:20;;;;;;;6.07;4.85;;;;;;;;;;5096013;28;20020;-70
2021/05/15 01:33:46;;;;;;;11.02;5.60;;;;;;;;;;5095951;28;20020;-70
2021/05/15 01:36:12;;;;;;;5.68;5.10;;;;;;;;;;5094597;28;20065;-70
2021/05/15 01:38:39;;;;;;;9.82;5.85;;;;;;;;;;5095833;28;20464;-69
2021/05/15 01:41:06;;;;;;;8.18;5.35;;;;;;;;;;5094506;28;20024;-69
2021/05/15 01:43:33;;;;;;;8.93;5.85;;;;;;;;;;5095767;28;20102;-69
2021/05/15 01:45:59;;;;;;;7.13;5.60;;;;;;;;;;5095672;28;20051;-69
2021/05/15 01:48:25;;;;;;;9.30;6.65;;;;;;;;;;5095653;28;20072;-67
2021/05/15 01:50:56;;;;;;;8.10;6.13;;;;;;;;;;5095330;28;20065;-69
2021/05/15 01:53:23;;;;;;;7.25;6.03;;;;;;;;;;5095651;28;20017;-70
2021/05/15 01:55:49;;;;;;;10.30;6.40;;;;;;;;;;5093840;28;20107;-69
2021/05/15 01:58:16;;;;;;;9.05;6.07;;;;;;;;;;5095465;28;20077;-68
2021/05/15 02:00:42;;;;;;;7.45;5.63;;;;;;;;;;5095385;28;20116;-67
2021/05/15 02:03:08;;;;;;;7.90;6.43;;;;;;;;;;5095050;28;20111;-72
2021/05/15 02:05:34;;;;;;;8.77;5.75;;;;;;;;;;5095322;28;20023;-69
2021/05/15 02:08:00;;;;;;;7.85;6.55;;;;;;;;;;5094982;28;20020;-68
2021/05/15 02:10:27;;;;;;;8.32;6.30;;;;;;;;;;5094925;28;20368;-67
2021/05/15 02:12:53;;;;;;;7.50;6.07;;;;;;;;;;5094775;28;20128;-69
2021/05/15 02:15:20;;;;;;;8.85;6.20;;;;;;;;;;5093842;28;20016;-68
2021/05/15 02:17:46;;;;;;;8.00;6.68;;;;;;;;;;5095123;28;20570;-69
2021/05/15 02:20:12;;;;;;;7.40;5.63;;;;;;;;;;5094775;28;20048;-69
2021/05/15 02:22:39;;;;;;;9.18;5.55;;;;;;;;;;5094972;28;20024;-69
2021/05/15 02:25:06;;;;;;;7.63;5.55;;;;;;;;;;5094964;28;20051;-69
2021/05/15 02:27:32;;;;;;;6.75;5.07;;;;;;;;;;5093655;28;20072;-69
2021/05/15 02:29:58;;;;;;;6.75;5.45;;;;;;;;;;5094836;28;20020;-69
2021/05/15 02:32:24;;;;;;;6.82;5.43;;;;;;;;;;5094860;28;20107;-67
2021/05/15 02:34:51;;;;;;;5.85;5.25;;;;;;;;;;5094792;28;20020;-66
2021/05/15 02:37:17;;;;;;;5.93;4.97;;;;;;;;;;5094990;28;20123;-69
2021/05/15 02:39:43;;;;;;;7.03;5.45;;;;;;;;;;5093373;28;20484;-69
2021/05/15 02:42:09;;;;;;;7.72;5.15;;;;;;;;;;5094544;28;20095;-68
2021/05/15 02:44:35;;;;;;;7.05;5.20;;;;;;;;;;5093271;28;20016;-69
2021/05/15 02:47:02;;;;;;;7.13;4.88;;;;;;;;;;5094507;28;20019;-68
2021/05/15 02:49:28;;;;;;;8.30;5.45;;;;;;;;;;5094232;28;20357;-68
2021/05/15 02:51:54;;;;;;;5.82;5.18;;;;;;;;;;5094542;28;20376;-70
2021/05/15 02:54:20;;;;;;;8.38;4.82;;;;;;;;;;5094386;28;20107;-67
2021/05/15 02:56:47;;;;;;;5.50;4.60;;;;;;;;;;5092726;28;20044;-69
2021/05/15 02:59:13;;;;;;;8.43;4.90;;;;;;;;;;5094296;28;20016;-70
2021/05/15 03:01:39;;;;;;;5.63;4.90;;;;;;;;;;5093006;28;20028;-68
2021/05/15 03:04:05;;;;;;;6.65;4.70;;;;;;;;;;5093899;28;20477;-68
2021/05/15 03:06:31;;;;;;;7.60;5.03;;;;;;;;;;5094382;28;20027;-69
2021/05/15 03:08:58;;;;;;;5.88;4.65;;;;;;;;;;5093413;28;20099;-68
2021/05/15 03:11:24;;;;;;;9.10;5.32;;;;;;;;;;5092496;28;20020;-69
2021/05/15 03:13:50;;;;;;;7.30;5.18;;;;;;;;;;5094059;28;20031;-69
2021/05/15 03:16:16;;;;;;;10.40;6.13;;;;;;;;;;5092681;28;20024;-68
2021/05/15 03:18:43;;;;;;;7.35;5.78;;;;;;;;;;5093916;28;20452;-68
2021/05/15 03:21:09;;;;;;;6.97;4.90;;;;;;;;;;5094129;28;20024;-70
2021/05/15 03:23:35;;;;;;;10.38;4.72;;;;;;;;;;5093946;28;20115;-70
2021/05/15 03:26:01;;;;;;;9.35;5.32;;;;;;;;;;5093838;28;20027;-69
2021/05/15 03:28:28;;;;;;;8.85;5.22;;;;;;;;;;5094023;28;20154;-70
2021/05/15 03:30:54;;;;;;;5.70;4.80;;;;;;;;;;5093961;28;20508;-68
2021/05/15 03:33:20;;;;;;;6.68;5.30;;;;;;;;;;5093808;28;20036;-71
2021/05/15 03:35:46;;;;;;;6.97;4.97;;;;;;;;;;5092322;28;20115;-71
2021/05/15 03:38:12;;;;;;;7.35;5.05;;;;;;;;;;5093650;28;20421;-67
2021/05/15 03:40:39;;;;;;;8.02;5.05;;;;;;;;;;5093576;28;20108;-67
2021/05/15 03:43:05;;;;;;;7.55;5.35;;;;;;;;;;5093499;28;20126;-69
2021/05/15 03:45:31;;;;;;;6.22;5.45;;;;;;;;;;5093543;28;20132;-69
2021/05/15 03:47:57;;;;;;;7.35;5.25;;;;;;;;;;5093469;28;20048;-69
2021/05/15 03:50:24;;;;;;;6.85;5.13;;;;;;;;;;5093172;28;20503;-69
2021/05/15 03:52:50;;;;;;;7.10;5.07;;;;;;;;;;5093517;28;20360;-69
2021/05/15 03:55:16;;;;;;;6.13;5.50;;;;;;;;;;5093375;28;20085;-69
2021/05/15 03:57:43;;;;;;;8.52;6.22;;;;;;;;;;5093352;28;20074;-68
2021/05/15 04:00:10;;;;;;;8.75;6.40;;;;;;;;;;5093299;28;20022;-68
2021/05/15 04:02:37;;;;;;;7.75;5.55;;;;;;;;;;5093325;28;20031;-68
2021/05/15 04:05:03;;;;;;;9.95;5.13;;;;;;;;;;5091931;28;20020;-68
2021/05/15 04:07:29;;;;;;;7.68;5.63;;;;;;;;;;5093245;28;20047;-68
2021/05/15 04:09:56;;;;;;;7.20;5.30;;;;;;;;;;5092942;28;20123;-68
2021/05/15 04:12:24;;;;;;;10.68;5.78;;;;;;;;;;5092870;28;20071;-70
2021/05/15 04:15:03;;;;;;;11.73;5.57;;;;;;;;;;5093236;28;20024;-69
2021/05/15 04:17:30;;;;;;;6.50;5.28;;;;;;;;;;5093281;28;20103;-69
2021/05/15 04:19:59;;;;;;;8.45;5.82;;;;;;;;;;5096078;28;20028;-70
2021/05/15 04:22:25;;;;;;;7.10;5.40;;;;;;;;;;5097287;28;20472;-70
2021/05/15 04:24:52;;;;;;;11.00;6.72;;;;;;;;;;5096950;28;20418;-68
2021/05/15 04:27:18;;;;;;;7.75;5.60;;;;;;;;;;5097469;28;20217;-68
2021/05/15 04:29:45;;;;;;;12.45;5.60;;;;;;;;;;5095859;28;20106;-69
2021/05/15 04:32:11;;;;;;;7.97;5.65;;;;;;;;;;5097129;28;20107;-69
2021/05/15 04:34:38;;;;;;;8.05;5.53;;;;;;;;;;5097095;28;20388;-71
2021/05/15 04:37:04;;;;;;;7.90;5.32;;;;;;;;;;5097054;28;20073;-70
2021/05/15 04:39:33;;;;;;;7.60;5.70;;;;;;;;;;5097000;28;20035;-69
2021/05/15 04:42:01;;;;;;;7.38;5.70;;;;;;;;;;5095621;28;20019;-70
2021/05/15 04:44:28;;;;;;;7.88;5.57;;;;;;;;;;5096876;28;20058;-68
2021/05/15 04:46:54;;;;;;;13.48;6.18;;;;;;;;;;5096931;28;20008;-67
2021/05/15 04:49:21;;;;;;;11.40;6.00;;;;;;;;;;5096487;28;20425;-69
2021/05/15 04:51:48;;;;;;;8.43;6.07;;;;;;;;;;5096755;28;20060;-68
2021/05/15 04:54:14;;;;;;;9.88;5.88;;;;;;;;;;5095482;28;20472;-69
2021/05/15 04:56:40;;;;;;;14.32;6.10;;;;;;;;;;5096670;28;20045;-68
2021/05/15 04:59:07;;;;;;;6.28;5.22;;;;;;;;;;5096622;28;20027;-68
2021/05/15 05:01:33;;;;;;;9.23;5.55;;;;;;;;;;5096603;28;20023;-69
2021/05/15 05:04:02;;;;;;;11.60;5.43;;;;;;;;;;5096566;28;20078;-68
2021/05/15 05:06:29;;;;;;;7.32;5.57;;;;;;;;;;5096483;28;20020;-70
2021/05/15 05:08:55;;;;;;;8.25;5.85;;;;;;;;;;5095184;28;20103;-70
2021/05/15 05:11:21;;;;;;;9.65;5.75;;;;;;;;;;5085905;28;20503;-70
2021/05/15 05:13:47;;;;;;;9.32;6.63;;;;;;;;;;5075626;28;20020;-68
2021/05/15 05:16:13;;;;;;;7.35;5.10;;;;;;;;;;5075891;28;20024;-68
2021/05/15 05:18:40;;;;;;;7.60;5.20;;;;;;;;;;5075866;28;20016;-70
2021/05/15 05:21:06;;;;;;;6.13;4.53;;;;;;;;;;5075814;28;20071;-68
2021/05/15 05:23:32;;;;;;;12.30;5.20;;;;;;;;;;5075947;28;20056;-69
2021/05/15 05:25:58;;;;;;;7.88;5.88;;;;;;;;;;5074477;28;20432;-69
2021/05/15 05:28:31;;;;;;;8.00;5.90;;;;;;;;;;5074578;28;20107;-69
2021/05/15 05:30:58;;;;;;;6.45;5.82;;;;;;;;;;5075120;28;20074;-67
2021/05/15 05:33:24;;;;;;;8.65;5.50;;;;;;;;;;5074472;28;20017;-67
2021/05/15 05:35:51;;;;;;;6.95;5.68;;;;;;;;;;5075484;28;20043;-68
2021/05/15 05:38:17;;;;;;;7.65;6.35;;;;;;;;;;5075593;28;20154;-69
2021/05/15 05:40:43;;;;;;;8.52;5.70;;;;;;;;;;5074282;28;20112;-69
2021/05/15 05:43:09;;;;;;;9.75;6.05;;;;;;;;;;5075162;28;20107;-70
2021/05/15 05:45:36;;;;;;;9.63;5.85;;;;;;;;;;5075470;28;20023;-70
2021/05/15 05:48:02;;;;;;;7.63;6.00;;;;;;;;;;5075737;28;20056;-70
2021/05/15 05:50:28;;;;;;;8.48;5.82;;;;;;;;;;5074153;28;20369;-68
2021/05/15 05:52:55;;;;;;;8.63;5.70;;;;;;;;;;5075348;28;20059;-68
2021/05/15 05:55:22;;;;;;;8.60;5.90;;;;;;;;;;5075337;28;20357;-68
2021/05/15 05:57:48;;;;;;;4.35;3.65;;;;;;;;;;5075281;28;20028;-69
2021/05/15 06:00:14;;;;;;;5.35;3.88;;;;;;;;;;5074942;28;20091;-69
2021/05/15 06:02:41;;;;;;;5.63;3.78;;;;;;;;;;5075124;28;20028;-69
2021/05/15 06:05:08;;;;;;;6.53;3.75;;;;;;;;;;5075146;28;20027;-70
2021/05/15 06:07:34;;;;;;;4.68;4.05;;;;;;;;;;5073840;28;20025;-69
2021/05/15 06:10:00;;;;;;;7.00;3.30;;;;;;;;;;5075080;28;20028;-70
2021/05/15 06:12:27;;;;;;;4.00;3.60;;;;;;;;;;5074694;28;20427;-69
2021/05/15 06:14:54;;;;;;;5.72;3.13;;;;;;;;;;5073382;28;20020;-69
2021/05/15 06:17:20;;;;;;;3.30;3.00;;;;;;;;;;5074974;28;20017;-67
2021/05/15 06:19:46;;;;;;;7.72;3.22;;;;;;;;;;5073547;28;20116;-68
2021/05/15 06:22:12;;;;;;;5.18;3.30;;;;;;;;;;5074788;28;20021;-67
2021/05/15 06:24:40;;;;;;;3.58;3.22;;;;;;;;;;5074756;28;20029;-68
2021/05/15 06:27:08;;;;;;;3.38;3.15;;;;;;;;;;5074314;28;20013;-69
2021/05/15 06:29:35;;;;;;;3.55;3.17;;;;;;;;;;5073430;28;20357;-70
2021/05/15 06:32:01;;;;;;;4.55;3.55;;;;;;;;;;5074294;28;20027;-68
2021/05/15 06:34:27;;;;;;;6.68;3.05;;;;;;;;;;5074575;28;20016;-65
2021/05/15 06:36:54;;;;;;;3.22;2.92;;;;;;;;;;5074471;28;20016;-69
2021/05/15 06:39:20;;;;;;;3.25;2.97;;;;;;;;;;5074088;28;20403;-70
2021/05/15 06:41:46;;;;;;;4.30;3.50;;;;;;;;;;5073749;28;20074;-69
2021/05/15 06:44:12;;;;;;;3.40;3.05;;;;;;;;;;5073671;28;20066;-68
2021/05/15 06:46:39;;;;;;;6.93;4.05;;;;;;;;;;5074233;28;20021;-68
2021/05/15 06:49:05;;;;;;;4.65;3.28;;;;;;;;;;5074200;28;20024;-68
2021/05/15 06:51:31;;;;;;;7.57;3.53;;;;;;;;;;5074180;28;20021;-70
2021/05/15 06:53:58;;;;;;;3.47;3.25;;;;;;;;;;5074247;28;20024;-71
2021/05/15 06:56:24;;;;;;;4.25;3.85;;;;;;;;;;5074331;28;20096;-70
2021/05/15 06:58:50;;;;;;;3.70;3.22;;;;;;;;;;5072758;28;20100;-70
2021/05/15 07:01:17;;;;;;;3.10;2.90;;;;;;;;;;5072685;28;20020;-70
2021/05/15 07:03:43;;;;;;;3.70;3.40;;;;;;;;;;5073959;28;20025;-70
2021/05/15 07:06:09;;;;;;;5.88;3.85;;;;;;;;;;5073371;28;20508;-69
2021/05/15 07:08:35;;;;;;;4.75;4.05;;;;;;;;;;5072522;28;20027;-70
2021/05/15 07:11:03;;;;;;;5.28;3.50;;;;;;;;;;5073765;28;20352;-71
2021/05/15 07:13:29;;;;;;;3.38;3.03;;;;;;;;;;5073337;28;20542;-71
2021/05/15 07:15:56;;;;;;;6.22;3.53;;;;;;;;;;5072407;28;20016;-69
2021/05/15 07:18:22;;;;;;;3.38;2.88;;;;;;;;;;5073716;28;20016;-70
2021/05/15 07:20:48;;;;;;;3.95;3.03;;;;;;;;;;5073839;28;20016;-71
2021/05/15 07:23:15;;;;;;;3.70;3.30;;;;;;;;;;5072244;28;20028;-72
2021/05/15 07:25:41;;;;;;;5.55;3.72;;;;;;;;;;5073662;28;20016;-70
2021/05/15 07:28:07;;;;;;;5.07;3.40;;;;;;;;;;5073467;28;20088;-70
2021/05/15 07:30:33;;;;;;;5.22;3.70;;;;;;;;;;5073160;28;20012;-69
2021/05/15 07:33:01;;;;;;;5.22;3.70;;;;;;;;;;5073435;28;20423;-70
2021/05/15 07:35:27;;;;;;;4.60;3.75;;;;;;;;;;5073519;28;20028;-70
2021/05/15 07:37:53;;;;;;;3.85;3.45;;;;;;;;;;5073346;28;20012;-69
2021/05/15 07:40:20;;;;;;;3.65;3.35;;;;;;;;;;5072024;28;20017;-70
2021/05/15 07:42:46;;;;;;;5.00;3.75;;;;;;;;;;5071943;28;20111;-70
2021/05/15 07:45:13;;;;;;;3.92;3.28;;;;;;;;;;5072952;28;20016;-70
2021/05/15 07:47:40;;;;;;;4.30;3.53;;;;;;;;;;5071917;28;20123;-73
2021/05/15 07:50:06;;;;;;;4.43;3.42;;;;;;;;;;5073208;28;20055;-71
2021/05/15 07:52:33;;;;;;;7.28;3.67;;;;;;;;;;5071927;28;20043;-69
2021/05/15 07:54:59;;;;;;;3.00;2.80;;;;;;;;;;5071523;28;20122;-69
2021/05/15 07:57:25;;;;;;;4.45;3.58;;;;;;;;;;5073224;28;20052;-70
2021/05/15 07:59:52;;;;;;;5.80;3.42;;;;;;;;;;5073132;28;20357;-68
2021/05/15 08:02:18;;;;;;;4.55;4.15;;;;;;;;;;5073116;28;20360;-69
2021/05/15 08:04:44;;;;;;;4.43;3.58;;;;;;;;;;5073103;28;20039;-71
2021/05/15 08:07:11;;;;;;;3.85;3.30;;;;;;;;;;5073078;28;20103;-71
2021/05/15 08:09:37;;;;;;;3.53;3.22;;;;;;;;;;5073083;28;20021;-69
2021/05/15 08:12:04;;;;;;;4.00;3.22;;;;;;;;;;5077597;28;20035;-69
2021/05/15 08:14:31;;;;;;;3.88;3.42;;;;;;;;;;5113374;28;20067;-71
2021/05/15 08:16:57;;;;;;;7.07;4.22;;;;;;;;;;5113190;28;20030;-69
2021/05/15 08:19:23;;;;;;;5.30;3.83;;;;;;;;;;5112816;28;20028;-69
2021/05/15 08:21:49;;;;;;;4.13;3.72;;;;;;;;;;5113466;28;20022;-70
2021/05/15 08:24:16;;;;;;;3.65;3.35;;;;;;;;;;5113386;28;20118;-70
2021/05/15 08:26:44;;;;;;;5.82;3.65;;;;;;;;;;5095059;28;20012;-70
2021/05/15 08:29:13;;;;;;;4.47;3.63;;;;;;;;;;5113373;28;20011;-71
2021/05/15 08:31:39;;;;;;;6.70;3.35;;;;;;;;;;5113354;28;20027;-69
2021/05/15 08:34:06;;;;;;;3.92;3.60;;;;;;;;;;5112481;28;20098;-70
2021/05/15 08:36:32;;;;;;;6.13;4.40;;;;;;;;;;5112392;28;20115;-69
2021/05/15 08:38:59;;;;;;;8.88;3.35;;;;;;;;;;5113332;28;20016;-69
2021/05/15 08:41:25;;;;;;;4.47;2.70;;;;;;;;;;5113268;28;20034;-70
2021/05/15 08:43:53;;;;;;;3.33;3.03;;;20.80;98.00;;;;;;5113089;28;20020;-69
2021/05/15 08:46:22;;;;;;;4.38;3.25;;;20.90;98.90;;;;;;5113222;28;20047;-70
2021/05/15 08:48:49;;;;;;;4.95;3.50;;;21.10;97.90;;;;;;5094932;28;20061;-72
2021/05/15 08:51:15;;;;;;;4.22;3.22;;;21.20;97.20;;;;;;5113210;28;20442;-70
2021/05/15 08:53:41;;;;;;;3.55;2.65;;;21.40;98.10;;;;;;5112856;28;20435;-71
2021/05/15 08:56:09;;;;;;;3.60;3.30;;;21.50;96.60;;;;;;5113207;28;20104;-70
2021/05/15 08:58:37;;;;;;;3.15;2.70;;;21.30;95.90;;;;;;5112851;28;20479;-70
2021/05/15 09:01:04;;;;;;;3.20;2.90;;;21.50;96.70;;;;;;5094824;28;20024;-72
2021/05/15 09:03:30;;;;;;;4.57;2.75;;;21.90;97.80;;;;;;5094702;28;20456;-69
2021/05/15 09:05:56;;;;;;;4.25;2.30;;;21.90;95.90;;;;;;5114125;28;20051;-70
2021/05/15 09:08:22;;;;;;;2.25;2.05;;;22.20;94.90;;;;;;5116878;28;20023;-70
2021/05/15 09:10:50;;;;;;;2.15;1.65;;;22.30;93.10;;;;;;5116776;28;20027;-70
2021/05/15 09:13:21;;;;;;;2.97;1.75;;;22.30;92.60;;;;;;5098155;28;20094;-69
2021/05/15 09:15:49;;;;;;;2.42;2.00;;;22.50;92.30;;;;;;5116719;28;20028;-69
2021/05/15 09:18:17;;;;;;;2.20;1.73;;;22.60;91.30;;;;;;5098267;28;20034;-70
2021/05/15 09:20:45;;;;;;;2.83;1.65;;;22.80;91.20;;;;;;5116595;28;20080;-69
2021/05/15 09:23:11;;;;;;;5.30;1.70;;;23.20;89.60;;;;;;5116828;28;20053;-71
2021/05/15 09:25:37;;;;;;;2.10;1.63;;;24.00;89.60;;;;;;5116553;28;20110;-71
2021/05/15 09:28:03;;;;;;;1.88;1.77;;;24.50;87.10;;;;;;5116503;28;20112;-69
2021/05/15 09:30:32;;;;;;;7.47;1.95;;;24.40;85.90;;;;;;5116218;28;20019;-69
2021/05/15 09:33:09;;;;;;;2.30;2.10;;;24.40;86.60;;;;;;5116350;28;20027;-69
2021/05/15 09:35:35;;;;;;;3.10;2.13;;;24.00;89.00;;;;;;5116374;28;20108;-71
2021/05/15 09:38:01;;;;;;;1.73;1.60;;;24.00;87.50;;;;;;5115877;28;20433;-70
2021/05/15 09:40:28;;;;;;;2.05;1.90;;;23.90;87.00;;;;;;5116150;28;20019;-70
2021/05/15 09:43:01;;;;;;;2.63;2.08;;;24.10;89.50;;;;;;5111700;28;20728;-72
2021/05/15 09:45:32;;;;;;;2.85;1.63;;;23.70;86.10;;;;;;5096964;28;20043;-73
2021/05/15 09:48:03;;;;;;;2.22;1.55;;;23.90;87.60;;;;;;5097634;28;20023;-72
2021/05/15 09:50:33;;;;;;;2.90;2.03;;;24.00;87.20;;;;;;5115595;28;20405;-72
2021/05/15 09:53:03;;;;;;;1.65;1.48;;;24.00;86.80;;;;;;5115878;28;20028;-70
2021/05/15 09:55:29;;;;;;;1.95;1.50;;;24.20;86.30;;;;;;5115836;28;20051;-71
2021/05/15 09:57:56;;;;;;;3.67;1.58;;;24.20;88.30;;;;;;5097403;28;20046;-71
2021/05/15 10:00:22;;;;;;;1.52;1.20;;;24.30;84.90;;;;;;5115512;28;20524;-72
2021/05/15 10:02:55;;;;;;;1.35;1.20;;;24.40;82.20;;;;;;5097108;28;20019;-72
2021/05/15 10:05:23;;;;;;;2.00;1.30;;;24.70;82.00;;;;;;5095747;28;20030;-73
2021/05/15 10:07:49;;;;;;;1.77;1.58;;;25.00;84.20;;;;;;5087957;28;20019;-73
2021/05/15 10:10:15;;;;;;;2.22;1.50;;;24.80;82.50;;;;;;5095217;28;20024;-72
2021/05/15 10:12:41;;;;;;;1.60;1.50;;;25.10;80.90;;;;;;5074195;28;20477;-71
2021/05/15 10:15:08;;;;;;;1.30;1.27;;;25.20;81.90;;;;;;5075276;28;20577;-73
2021/05/15 10:17:34;;;;;;;2.10;1.20;;;25.40;83.00;;;;;;5074331;28;20025;-72
2021/05/15 10:20:08;;;;;;;1.58;1.23;;;25.50;81.80;;;;;;5074541;28;20059;-72
2021/05/15 10:22:40;;;;;;;5.03;1.60;;;25.90;79.90;;;;;;5074534;28;20059;-72
2021/05/15 10:25:11;;;;;;;1.40;1.30;;;26.00;78.90;;;;;;5073087;28;20028;-72
2021/05/15 10:27:38;;;;;;;1.65;1.20;;;26.00;80.40;;;;;;5072996;28;20025;-72
2021/05/15 10:30:30;;;;;;;2.55;1.40;;;25.70;79.30;;;;;;5074440;28;20085;-72
2021/05/15 10:33:01;;;;;;;1.25;1.23;;;26.00;78.10;;;;;;5070013;28;20036;-72
2021/05/15 10:35:44;;;;;;;2.33;1.10;;;26.60;75.80;;;;;;5074341;28;20017;-72
2021/05/15 10:38:14;;;;;;;0.90;0.90;;;27.20;71.90;;;;;;5074213;28;20032;-72
2021/05/15 10:40:48;;;;;;;1.35;1.02;;;28.80;68.10;;;;;;5072721;28;20440;-71
2021/05/15 10:43:29;;;;;;;0.93;0.90;;;28.50;67.80;;;;;;5074053;28;20025;-71
2021/05/15 10:45:54;;;;;;;1.13;1.10;;;28.10;66.60;;;;;;5072819;28;20024;-72
2021/05/15 10:48:25;;;;;;;2.42;0.93;;;27.70;68.20;;;;;;5072635;28;20446;-71
2021/05/15 10:50:54;;;;;;;0.90;0.90;;;;;;;;;;5072710;28;20016;-72
2021/05/15 10:53:21;;;;;;;1.20;1.05;;;;;;;;;;5072685;28;20047;-73
2021/05/15 10:56:14;;;;;;;0.93;0.88;;;27.30;66.30;;;;;;5081446;28;20020;-72
2021/05/15 10:58:47;;;;;;;2.30;1.33;;;26.60;70.40;;;;;;5092378;28;20024;-72
2021/05/15 11:01:25;;;;;;;1.88;1.25;;;25.80;71.70;;;;;;5093986;28;20023;-72
2021/05/15 11:03:52;;;;;;;1.25;1.13;;;25.70;72.60;;;;;;5093867;28;20372;-73
2021/05/15 11:06:22;;;;;;;2.30;1.42;;;;;;;;;;5091006;28;20051;-72
2021/05/15 11:09:05;;;;;;;1.27;1.00;;;27.00;70.50;;;;;;5093536;28;20468;-72
2021/05/15 11:11:44;;;;;;;4.57;2.40;;;26.40;70.80;;;;;;5094071;28;20818;-72
2021/05/15 11:14:32;;;;;;;2.13;1.30;;;25.70;74.00;;;;;;5114183;28;20031;-72
2021/05/15 11:17:17;;;;;;;1.55;1.20;;;25.50;71.80;;;;;;5114492;28;20386;-72
2021/05/15 11:19:50;;;;;;;2.50;1.13;;;24.90;73.30;;;;;;5096227;28;20086;-72
2021/05/15 11:22:17;;;;;;;1.20;1.10;;;;;;;;;;5114304;28;20027;-73
2021/05/15 11:24:55;;;;;;;0.93;0.93;;;25.90;73.30;;;;;;5114483;28;20349;-71
2021/05/15 11:27:22;;;;;;;1.50;1.00;;;27.00;67.90;;;;;;5114471;28;20019;-71
2021/05/15 11:30:02;;;;;;;3.88;1.30;;;27.50;68.80;;;;;;5113829;28;20020;-73
2021/05/15 11:32:28;;;;;;;1.35;0.88;;;;;;;;;;5114338;28;20047;-72
2021/05/15 11:34:56;;;;;;;2.60;1.20;;;;;;;;;;5113781;28;20024;-72
2021/05/15 11:37:22;;;;;;;5.38;1.20;;;;;;;;;;5113904;28;20018;-72
2021/05/15 11:39:52;;;;;;;0.88;0.85;;;;;;;;;;5113493;28;20034;-71
2021/05/15 11:42:19;;;;;;;1.42;0.82;;;;;;;;;;5113816;28;20007;-74
2021/05/15 11:44:52;;;;;;;1.15;1.10;;;;;;;;;;5113818;28;20024;-73
2021/05/15 11:47:18;;;;;;;1.20;0.98;;;;;;;;;;5092141;28;20020;-74
2021/05/15 11:49:44;;;;;;;3.10;1.45;;;;;;;;;;5095183;28;20023;-72
2021/05/15 11:52:11;;;;;;;4.53;1.45;;;;;;;;;;5095380;28;20452;-71
2021/05/15 11:54:39;;;;;;;2.28;1.20;;;;;;;;;;5113637;28;20059;-72
2021/05/15 11:57:05;;;;;;;1.90;1.08;;;;;;;;;;5113572;28;20026;-72
2021/05/15 11:59:32;;;;;;;1.90;1.10;;;;;;;;;;5113521;28;20132;-72
2021/05/15 12:01:59;;;;;;;2.05;1.10;;;;;;;;;;5113412;28;20026;-71
2021/05/15 12:04:33;;;;;;;1.33;1.20;;;;;;;;;;5112795;28;20371;-71
2021/05/15 12:06:59;;;;;;;0.95;0.90;;;;;;;;;;5095060;28;20031;-71
2021/05/15 12:09:27;;;;;;;3.92;1.67;;;;;;;;;;5113293;28;20098;-70
2021/05/15 12:12:05;;;;;;;2.40;0.90;;;;;;;;;;5094691;28;20071;-71
2021/05/15 12:14:32;;;;;;;2.47;1.45;;;;;;;;;;5113554;28;20028;-72
2021/05/15 12:17:05;;;;;;;1.10;1.10;;;;;;;;;;5113510;28;20103;-71
2021/05/15 12:19:31;;;;;;;0.88;0.88;;;;;;;;;;5095226;28;20015;-73
2021/05/15 12:21:57;;;;;;;1.23;1.10;;;;;;;;;;5095021;28;20167;-70
2021/05/15 12:24:24;;;;;;;1.88;1.08;;;;;;;;;;5113271;28;20020;-70
2021/05/15 12:26:50;;;;;;;1.10;1.05;;;;;;;;;;5095058;28;20364;-70
2021/05/15 12:29:16;;;;;;;1.02;0.90;;;;;;;;;;5113328;28;20055;-70
2021/05/15 12:31:43;;;;;;;1.90;0.80;;;;;;;;;;5113370;28;20045;-71
2021/05/15 12:34:10;;;;;;;1.02;0.80;;;;;;;;;;5113321;28;20023;-70
2021/05/15 12:36:37;;;;;;;1.38;1.00;;;;;;;;;;5095045;28;20020;-71
2021/05/15 12:39:12;;;;;;;0.77;0.50;;;27.90;54.20;;;;;;5113023;28;20436;-70
2021/05/15 12:41:40;;;;;;;2.10;0.82;;;27.70;54.90;;;;;;5098827;28;20076;-70
2021/05/15 12:44:40;;;;;;;1.95;1.00;;;27.00;56.30;;;;;;5097400;28;20023;-70
2021/05/15 12:47:06;;;;;;;1.50;0.90;;;26.50;58.20;;;;;;5098945;28;20038;-71
2021/05/15 12:49:40;;;;;;;1.05;0.80;;;26.10;57.20;;;;;;5115206;28;20019;-70
2021/05/15 12:52:14;;;;;;;0.70;0.70;;;;;;;;;;5097857;28;20107;-71
2021/05/15 12:54:41;;;;;;;3.85;0.90;;;;;;;;;;5116652;28;20027;-69
2021/05/15 12:57:07;;;;;;;1.50;0.90;;;;;;;;;;5098869;28;20359;-72
2021/05/15 12:59:37;;;;;;;3.20;1.20;;;;;;;;;;5098739;28;20016;-69
2021/05/15 13:02:23;;;;;;;1.15;1.05;;;;;;;;;;5098628;28;20064;-70
2021/05/15 13:04:56;;;;;;;1.77;1.08;;;;;;;;;;5116726;28;20068;-70
2021/05/15 13:07:26;;;;;;;2.70;1.33;;;;;;;;;;5116951;28;20044;-71
2021/05/15 13:09:54;;;;;;;3.03;1.45;;;;;;;;;;5116802;28;20073;-69
2021/05/15 13:12:20;;;;;;;3.17;1.48;;;22.90;72.90;;;;;;5098005;28;20391;-71
2021/05/15 13:14:46;;;;;;;2.00;1.90;;;22.50;75.50;;;;;;5098439;28;20535;-71
2021/05/15 13:17:12;;;;;;;6.82;1.80;;;22.10;79.60;;;;;;5098418;28;20054;-74
2021/05/15 13:19:38;;;;;;;2.80;2.08;;;21.50;84.50;;;;;;5116705;28;20028;-71
2021/05/15 13:22:04;;;;;;;2.60;1.83;;;21.10;90.00;;;;;;5116377;28;20020;-70
2021/05/15 13:24:30;;;;;;;7.78;2.30;;;20.60;91.10;;;;;;5116615;28;20023;-72
2021/05/15 13:26:55;;;;;;;3.05;2.30;;;20.30;93.50;;;;;;5097746;28;20027;-70
2021/05/15 13:29:21;;;;;;;4.70;2.53;;;20.00;95.10;;;;;;5116490;28;20022;-69
2021/05/15 13:31:48;;;;;;;3.47;2.55;;;19.70;98.20;;;;;;5116417;28;20032;-68
2021/05/15 13:34:13;;;;;;;4.60;2.10;;;19.40;99.90;;;;;;5116355;28;20020;-70
2021/05/15 13:36:39;;;;;;;2.65;2.45;;;19.20;99.90;;;;;;5116438;28;20076;-71
2021/05/15 13:39:06;;;;;;;3.30;3.00;;;;;;;;;;5116103;28;20016;-69
2021/05/15 13:41:33;;;;;;;5.88;3.13;;;;;;;;;;5097950;28;20023;-70
2021/05/15 13:44:00;;;;;;;6.20;3.30;;;;;;;;;;5097735;28;20337;-71
2021/05/15 13:46:27;;;;;;;3.50;3.13;;;;;;;;;;5116137;28;20035;-72
2021/05/15 13:48:54;;;;;;;5.85;3.42;;;;;;;;;;5097578;28;20020;-71
2021/05/15 13:51:20;;;;;;;3.00;2.72;;;;;;;;;;5115447;28;20016;-69
2021/05/15 13:53:47;;;;;;;4.38;3.25;;;;;;;;;;5097726;28;20119;-72
2021/05/15 13:56:13;;;;;;;3.28;2.97;;;;;;;;;;5097509;28;20023;-70
2021/05/15 13:58:40;;;;;;;2.63;2.15;;;;;;;;;;5115634;28;20361;-67
2021/05/15 14:01:07;;;;;;;3.63;2.83;;;;;;;;;;5115950;28;20020;-68
2021/05/15 14:03:33;;;;;;;7.90;4.00;;;;;;;;;;5115735;28;20053;-70
2021/05/15 14:06:00;;;;;;;4.32;3.47;;;;;;;;;;5116070;28;20023;-73
2021/05/15 14:08:26;;;;;;;3.47;3.25;;;;;;;;;;5115757;28;20020;-72
2021/05/15 14:10:52;;;;;;;5.45;3.50;;;;;;;;;;5115712;28;20061;-72
2021/05/15 14:13:22;;;;;;;4.20;3.58;;;;;;;;;;5096841;28;20039;-71
2021/05/15 14:15:48;;;;;;;4.18;3.78;;;;;;;;;;5115585;28;20020;-71